createdAt,value
2018-09-13T00:00:55.476Z,37.30
2018-09-13T00:03:23.888Z,36.27
2018-09-13T00:05:52.965Z,36.87
2018-09-13T00:08:21.352Z,39.83
2018-09-13T00:10:49.840Z,34.63
2018-09-13T00:13:18.245Z,38.87
2018-09-13T00:15:46.661Z,38.90
2018-09-13T00:18:15.310Z,35.27
2018-09-13T00:20:43.719Z,41.40
2018-09-13T00:23:12.132Z,42.03
2018-09-13T00:25:40.685Z,35.80
2018-09-13T00:28:09.110Z,32.80
2018-09-13T00:30:37.519Z,30.17
2018-09-13T00:33:06.106Z,34.20
2018-09-13T00:35:34.465Z,26.47
2018-09-13T00:38:02.916Z,29.80
2018-09-13T00:40:31.417Z,27.83
2018-09-13T00:42:59.804Z,27.20
2018-09-13T00:45:28.209Z,25.57
2018-09-13T00:47:56.726Z,27.73
2018-09-13T00:50:25.123Z,22.13
2018-09-13T00:52:53.489Z,24.50
2018-09-13T00:55:22.207Z,23.00
2018-09-13T00:57:50.654Z,20.80
2018-09-13T01:00:19.052Z,24.77
2018-09-13T01:02:47.475Z,28.33
2018-09-13T01:05:15.853Z,24.77
2018-09-13T01:07:44.701Z,20.47
2018-09-13T01:10:14.124Z,21.60
2018-09-13T01:12:42.536Z,20.93
2018-09-13T01:15:10.932Z,21.60
2018-09-13T01:17:39.543Z,23.43
2018-09-13T01:20:07.987Z,20.13
2018-09-13T01:22:36.437Z,22.93
2018-09-13T01:25:04.994Z,22.83
2018-09-13T01:27:33.411Z,22.83
2018-09-13T01:30:01.840Z,26.33
2018-09-13T01:32:30.256Z,21.70
2018-09-13T01:34:58.662Z,23.80
2018-09-13T01:37:27.120Z,21.67
2018-09-13T01:39:55.500Z,25.07
2018-09-13T01:42:23.914Z,23.60
2018-09-13T01:44:52.288Z,24.77
2018-09-13T01:47:20.926Z,22.23
2018-09-13T01:49:49.296Z,25.77
2018-09-13T01:52:17.717Z,27.77
2018-09-13T01:54:46.118Z,28.00
2018-09-13T01:57:14.502Z,28.53
2018-09-13T01:59:42.931Z,24.77
2018-09-13T02:02:11.444Z,27.10
2018-09-13T02:04:39.861Z,34.23
2018-09-13T02:07:08.284Z,26.80
2018-09-13T02:09:36.695Z,29.47
2018-09-13T02:12:05.114Z,27.33
2018-09-13T02:14:33.534Z,29.97
2018-09-13T02:17:01.931Z,30.10
2018-09-13T02:19:30.398Z,30.53
2018-09-13T02:21:58.783Z,30.63
2018-09-13T02:24:27.217Z,27.43
2018-09-13T02:26:55.584Z,28.90
2018-09-13T02:29:24.977Z,25.70
2018-09-13T02:31:53.329Z,29.97
2018-09-13T02:34:22.532Z,22.40
2018-09-13T02:36:50.922Z,23.20
2018-09-13T02:39:20.197Z,27.47
2018-09-13T02:41:49.459Z,27.10
2018-09-13T02:44:17.907Z,25.57
2018-09-13T02:46:46.377Z,23.00
2018-09-13T02:49:14.899Z,27.30
2018-09-13T02:51:43.298Z,24.57
2018-09-13T02:54:11.683Z,22.47
2018-09-13T02:56:40.168Z,24.83
2018-09-13T02:59:08.580Z,24.73
2018-09-13T03:01:37.048Z,33.47
2018-09-13T03:04:05.449Z,28.23
2018-09-13T03:06:34.023Z,23.13
2018-09-13T03:09:02.453Z,25.70
2018-09-13T03:11:32.394Z,23.60
2018-09-13T03:14:00.787Z,22.83
2018-09-13T03:16:29.162Z,21.03
2018-09-13T03:18:57.581Z,24.00
2018-09-13T03:21:25.943Z,23.63
2018-09-13T03:23:54.381Z,25.23
2018-09-13T03:26:22.772Z,23.10
2018-09-13T03:28:51.256Z,24.90
2018-09-13T03:31:19.696Z,21.00
2018-09-13T03:33:48.169Z,22.13
2018-09-13T03:36:16.555Z,18.03
2018-09-13T03:38:44.968Z,23.33
2018-09-13T03:41:13.384Z,20.63
2018-09-13T03:43:42.955Z,16.87
2018-09-13T03:46:11.569Z,20.40
2018-09-13T03:48:40.655Z,22.47
2018-09-13T03:51:10.053Z,22.77
2018-09-13T03:53:39.168Z,20.80
2018-09-13T03:56:07.609Z,22.57
2018-09-13T03:58:36.009Z,23.50
2018-09-13T04:01:04.501Z,20.93
2018-09-13T04:03:32.950Z,19.60
2018-09-13T04:06:01.424Z,18.57
2018-09-13T04:08:31.052Z,20.87
2018-09-13T04:10:59.448Z,20.77
2018-09-13T04:13:27.878Z,19.30
2018-09-13T04:15:56.284Z,19.17
2018-09-13T04:18:24.690Z,19.50
2018-09-13T04:20:53.661Z,24.27
2018-09-13T04:23:22.060Z,22.70
2018-09-13T04:25:50.688Z,24.33
2018-09-13T04:28:19.152Z,30.57
2018-09-13T04:30:47.587Z,26.93
2018-09-13T04:33:16.030Z,27.53
2018-09-13T04:35:44.466Z,31.87
2018-09-13T04:38:12.846Z,35.17
2018-09-13T04:40:41.270Z,31.93
2018-09-13T04:43:09.687Z,33.83
2018-09-13T04:45:38.097Z,32.63
2018-09-13T04:48:06.559Z,31.50
2018-09-13T04:50:34.976Z,31.17
2018-09-13T04:53:03.443Z,32.47
2018-09-13T04:55:33.014Z,35.70
2018-09-13T04:58:01.419Z,32.70
2018-09-13T05:00:29.824Z,29.63
2018-09-13T05:02:58.804Z,32.77
2018-09-13T05:05:27.229Z,32.37
2018-09-13T05:07:55.698Z,31.33
2018-09-13T05:10:24.108Z,29.30
2018-09-13T05:12:53.179Z,32.53
2018-09-13T05:15:21.510Z,35.20
2018-09-13T05:17:50.583Z,32.20
2018-09-13T05:20:18.999Z,36.07
2018-09-13T05:22:47.397Z,34.40
2018-09-13T05:25:15.876Z,36.50
2018-09-13T05:27:44.253Z,34.53
2018-09-13T05:30:12.723Z,37.60
2018-09-13T05:32:41.134Z,40.10
2018-09-13T05:35:09.549Z,38.27
2018-09-13T05:37:38.224Z,37.30
2018-09-13T05:40:06.680Z,34.07
2018-09-13T05:42:35.071Z,37.50
2018-09-13T05:45:03.591Z,36.73
2018-09-13T05:47:32.087Z,39.67
2018-09-13T05:50:00.617Z,45.53
2018-09-13T05:52:28.976Z,40.87
2018-09-13T05:54:57.408Z,40.80
2018-09-13T05:57:26.849Z,38.00
2018-09-13T05:59:55.308Z,42.43
2018-09-13T06:02:23.692Z,36.00
2018-09-13T06:04:52.105Z,37.73
2018-09-13T06:07:20.508Z,45.80
2018-09-13T06:09:48.924Z,35.60
2018-09-13T06:12:17.357Z,39.80
2018-09-13T06:14:45.769Z,38.20
2018-09-13T06:17:14.168Z,38.67
2018-09-13T06:19:42.688Z,39.00
2018-09-13T06:22:11.047Z,38.30
2018-09-13T06:24:39.458Z,43.50
2018-09-13T06:27:07.976Z,35.53
2018-09-13T06:29:36.602Z,38.77
2018-09-13T06:32:05.048Z,35.10
2018-09-13T06:34:33.478Z,36.33
2018-09-13T06:37:02.126Z,31.63
2018-09-13T06:39:30.565Z,28.07
2018-09-13T06:41:58.980Z,29.17
2018-09-13T06:44:27.387Z,29.80
2018-09-13T06:46:55.773Z,29.23
2018-09-13T06:49:24.177Z,30.10
2018-09-13T06:51:52.584Z,27.37
2018-09-13T06:54:21.025Z,29.30
2018-09-13T06:56:49.459Z,28.97
2018-09-13T06:59:17.879Z,26.03
2018-09-13T07:01:46.315Z,29.70
2018-09-13T07:04:14.694Z,29.37
2018-09-13T07:06:43.137Z,27.57
2018-09-13T07:09:13.874Z,25.20
2018-09-13T07:11:42.677Z,29.10
2018-09-13T07:14:11.090Z,27.00
2018-09-13T07:16:39.489Z,26.50
2018-09-13T07:19:07.888Z,27.00
2018-09-13T07:21:36.408Z,29.60
2018-09-13T07:24:05.098Z,27.30
2018-09-13T07:26:33.558Z,26.27
2018-09-13T07:29:01.942Z,27.83
2018-09-13T07:31:30.360Z,29.20
2018-09-13T07:33:58.769Z,26.83
2018-09-13T07:36:27.144Z,28.50
2018-09-13T07:38:55.576Z,25.30
2018-09-13T07:41:23.969Z,26.10
2018-09-13T07:43:52.380Z,24.77
2018-09-13T07:46:20.795Z,25.63
2018-09-13T07:48:49.203Z,33.03
2018-09-13T07:51:17.618Z,26.77
2018-09-13T07:53:46.054Z,30.60
2018-09-13T07:56:14.610Z,28.63
2018-09-13T07:58:43.032Z,22.67
2018-09-13T08:01:11.444Z,27.50
2018-09-13T08:03:39.869Z,24.93
2018-09-13T08:06:08.712Z,27.10
2018-09-13T08:08:37.117Z,28.43
2018-09-13T08:11:05.565Z,29.10
2018-09-13T08:13:33.962Z,25.83
2018-09-13T08:16:02.404Z,29.13
2018-09-13T08:18:30.763Z,32.40
2018-09-13T08:20:59.192Z,26.13
2018-09-13T08:23:27.741Z,29.70
2018-09-13T08:25:56.187Z,26.83
2018-09-13T08:28:24.550Z,24.17
2018-09-13T08:30:52.955Z,24.63
2018-09-13T08:33:21.395Z,27.30
2018-09-13T08:35:49.796Z,24.10
2018-09-13T08:38:18.228Z,25.47
2018-09-13T08:40:46.712Z,22.40
2018-09-13T08:43:15.159Z,25.27
2018-09-13T08:45:43.497Z,22.87
2018-09-13T08:48:11.992Z,24.27
2018-09-13T08:50:40.400Z,24.37
2018-09-13T08:53:08.876Z,23.53
2018-09-13T08:55:37.301Z,27.00
2018-09-13T08:58:05.820Z,26.77
2018-09-13T09:00:34.340Z,22.33
2018-09-13T09:03:02.774Z,25.00
2018-09-13T09:05:31.214Z,25.10
2018-09-13T09:07:59.603Z,30.47
2018-09-13T09:10:28.005Z,21.83
2018-09-13T09:12:56.408Z,25.77
2018-09-13T09:15:24.987Z,20.10
2018-09-13T09:17:53.377Z,26.10
2018-09-13T09:20:21.838Z,26.53
2018-09-13T09:22:50.196Z,24.80
2018-09-13T09:25:18.606Z,24.30
2018-09-13T09:27:46.988Z,29.03
2018-09-13T09:30:15.440Z,27.93
2018-09-13T09:32:44.497Z,30.20
2018-09-13T09:35:12.941Z,33.60
2018-09-13T09:37:41.358Z,40.13
2018-09-13T09:40:10.384Z,39.50
2018-09-13T09:42:38.808Z,36.77
2018-09-13T09:45:07.260Z,36.13
2018-09-13T09:47:35.645Z,37.77
2018-09-13T09:50:04.281Z,40.47
2018-09-13T09:52:32.792Z,42.20
2018-09-13T09:55:01.120Z,43.73
2018-09-13T09:57:29.546Z,41.77
2018-09-13T09:59:57.958Z,41.70
2018-09-13T10:02:26.352Z,40.20
2018-09-13T10:04:54.777Z,31.10
2018-09-13T10:07:23.248Z,29.00
2018-09-13T10:09:51.756Z,31.73
2018-09-13T10:12:20.281Z,29.67
2018-09-13T10:14:53.916Z,25.80
2018-09-13T10:17:27.635Z,28.57
2018-09-13T10:20:01.445Z,28.57
2018-09-13T10:22:35.014Z,30.10
2018-09-13T10:25:08.806Z,28.20
2018-09-13T10:27:42.508Z,27.60
2018-09-13T10:30:16.309Z,34.23
2018-09-13T10:32:50.087Z,24.93
2018-09-13T10:35:23.661Z,23.53
2018-09-13T10:37:57.387Z,24.37
2018-09-13T10:40:31.161Z,23.90
2018-09-13T10:43:04.949Z,26.50
2018-09-13T10:45:38.513Z,20.07
2018-09-13T10:48:12.215Z,21.57
2018-09-13T10:50:48.710Z,25.00
2018-09-13T10:53:22.533Z,20.70
2018-09-13T10:55:51.654Z,20.03
2018-09-13T10:58:20.058Z,21.47
2018-09-13T11:00:48.481Z,16.83
2018-09-13T11:03:16.896Z,16.93
2018-09-13T11:05:45.445Z,18.73
2018-09-13T11:08:14.017Z,14.07
2018-09-13T11:10:43.189Z,18.27
2018-09-13T11:13:19.830Z,21.03
2018-09-13T11:15:48.356Z,16.77
2018-09-13T11:18:16.767Z,18.33
2018-09-13T11:20:45.148Z,17.30
2018-09-13T11:23:13.551Z,20.00
2018-09-13T11:25:41.937Z,16.63
2018-09-13T11:28:10.316Z,15.57
2018-09-13T11:30:38.792Z,16.20
2018-09-13T11:33:07.341Z,15.07
2018-09-13T11:35:36.349Z,13.13
2018-09-13T11:38:04.788Z,13.00
2018-09-13T11:40:33.539Z,19.70
2018-09-13T11:43:01.726Z,14.20
2018-09-13T11:45:30.202Z,12.03
2018-09-13T11:47:58.629Z,16.13
2018-09-13T11:50:27.071Z,14.87
2018-09-13T11:52:55.989Z,17.70
2018-09-13T11:55:24.412Z,15.40
2018-09-13T11:57:52.872Z,13.30
2018-09-13T12:00:21.265Z,14.03
2018-09-13T12:02:49.661Z,14.47
2018-09-13T12:05:18.066Z,20.90
2018-09-13T12:07:46.502Z,11.40
2018-09-13T12:10:14.944Z,16.53
2018-09-13T12:12:43.400Z,13.97
2018-09-13T12:15:11.802Z,18.20
2018-09-13T12:17:41.070Z,12.53
2018-09-13T12:20:09.497Z,11.07
2018-09-13T12:22:37.977Z,11.77
2018-09-13T12:25:06.297Z,9.37
2018-09-13T12:27:35.272Z,10.03
2018-09-13T12:30:04.849Z,12.60
2018-09-13T12:32:33.975Z,15.33
2018-09-13T12:35:02.409Z,12.73
2018-09-13T12:37:30.864Z,10.13
2018-09-13T12:39:59.293Z,11.40
2018-09-13T12:42:27.732Z,10.80
2018-09-13T12:44:56.164Z,12.33
2018-09-13T12:47:25.439Z,16.20
2018-09-13T12:49:54.577Z,12.73
2018-09-13T12:52:22.990Z,12.93
2018-09-13T12:54:51.402Z,12.57
2018-09-13T12:57:19.817Z,17.40
2018-09-13T12:59:48.248Z,14.07
2018-09-13T13:02:16.728Z,12.77
2018-09-13T13:04:45.139Z,14.50
2018-09-13T13:07:13.577Z,14.03
2018-09-13T13:09:41.985Z,14.60
2018-09-13T13:12:10.451Z,14.03
2018-09-13T13:14:38.894Z,16.03
2018-09-13T13:17:07.331Z,18.20
2018-09-13T13:19:35.747Z,21.07
2018-09-13T13:22:04.345Z,15.60
2018-09-13T13:24:32.840Z,13.23
2018-09-13T13:27:01.347Z,16.67
2018-09-13T13:29:29.799Z,17.03
2018-09-13T13:31:58.251Z,15.87
2018-09-13T13:34:26.682Z,14.87
2018-09-13T13:36:55.209Z,18.87
2018-09-13T13:39:23.624Z,12.70
2018-09-13T13:41:52.072Z,15.70
2018-09-13T13:44:20.527Z,14.13
2018-09-13T13:46:49.339Z,14.47
2018-09-13T13:49:17.756Z,11.37
2018-09-13T13:51:46.195Z,14.10
2018-09-13T13:54:14.636Z,14.47
2018-09-13T13:56:43.188Z,16.80
2018-09-13T13:59:11.646Z,15.20
2018-09-13T14:01:40.061Z,14.27
2018-09-13T14:04:08.464Z,12.50
2018-09-13T14:06:36.997Z,12.73
2018-09-13T14:09:09.109Z,13.60
2018-09-13T14:11:37.503Z,14.93
2018-09-13T14:14:05.946Z,16.47
2018-09-13T14:16:34.897Z,13.73
2018-09-13T14:19:03.386Z,16.57
2018-09-13T14:21:31.876Z,15.33
2018-09-13T14:24:00.365Z,16.90
2018-09-13T14:26:28.781Z,14.50
2018-09-13T14:28:57.263Z,14.90
2018-09-13T14:31:26.310Z,13.50
2018-09-13T14:33:54.745Z,14.93
2018-09-13T14:36:23.126Z,14.73
2018-09-13T14:38:51.836Z,11.13
2018-09-13T14:41:20.301Z,15.07
2018-09-13T14:43:48.689Z,14.27
2018-09-13T14:46:17.136Z,11.53
2018-09-13T14:48:45.548Z,11.47
2018-09-13T14:51:14.204Z,10.60
2018-09-13T14:53:42.723Z,15.90
2018-09-13T14:56:11.263Z,12.10
2018-09-13T14:58:40.748Z,13.63
2018-09-13T15:01:09.295Z,14.60
2018-09-13T15:03:37.787Z,14.27
2018-09-13T15:06:06.277Z,12.10
2018-09-13T15:08:35.344Z,10.43
2018-09-13T15:11:04.166Z,11.73
2018-09-13T15:13:32.708Z,16.93
2018-09-13T15:16:01.140Z,10.60
2018-09-13T15:18:29.680Z,15.47
2018-09-13T15:20:58.117Z,12.07
2018-09-13T15:23:26.566Z,12.53
2018-09-13T15:25:55.021Z,15.93
2018-09-13T15:28:23.649Z,10.80
2018-09-13T15:30:52.068Z,10.97
2018-09-13T15:33:20.520Z,10.10
2018-09-13T15:35:48.925Z,9.20
2018-09-13T15:38:17.436Z,8.43
2018-09-13T15:40:45.873Z,10.40
2018-09-13T15:43:14.381Z,8.67
2018-09-13T15:45:42.788Z,10.93
2018-09-13T15:48:11.172Z,11.60
2018-09-13T15:50:39.585Z,10.33
2018-09-13T15:53:08.035Z,13.27
2018-09-13T15:55:36.421Z,12.83
2018-09-13T15:58:04.937Z,14.30
2018-09-13T16:00:33.354Z,10.37
2018-09-13T16:03:02.651Z,11.03
2018-09-13T16:05:31.106Z,11.60
2018-09-13T16:07:59.523Z,11.43
2018-09-13T16:10:27.945Z,11.60
2018-09-13T16:12:56.457Z,15.30
2018-09-13T16:15:24.824Z,10.23
2018-09-13T16:17:53.290Z,10.80
2018-09-13T16:20:21.758Z,11.30
2018-09-13T16:22:51.309Z,13.30
2018-09-13T16:25:19.730Z,14.60
2018-09-13T16:27:48.179Z,10.60
2018-09-13T16:30:16.633Z,12.27
2018-09-13T16:32:45.152Z,9.37
2018-09-13T16:35:13.770Z,16.07
2018-09-13T16:37:48.064Z,11.87
2018-09-13T16:40:21.754Z,12.93
2018-09-13T16:42:55.509Z,10.00
2018-09-13T16:45:29.573Z,13.90
2018-09-13T16:48:01.434Z,12.50
2018-09-13T16:50:29.914Z,10.40
2018-09-13T16:52:58.294Z,10.23
2018-09-13T16:55:26.782Z,16.00
2018-09-13T16:57:56.221Z,10.33
2018-09-13T17:00:25.528Z,9.13
2018-09-13T17:02:54.161Z,14.20
2018-09-13T17:05:22.650Z,11.30
2018-09-13T17:07:51.092Z,13.53
2018-09-13T17:10:19.540Z,13.50
2018-09-13T17:12:48.052Z,10.60
2018-09-13T17:15:16.847Z,11.70
2018-09-13T17:17:45.272Z,12.03
2018-09-13T17:20:13.730Z,9.40
2018-09-13T17:22:42.349Z,15.53
2018-09-13T17:25:10.761Z,9.50
2018-09-13T17:27:39.221Z,13.97
2018-09-13T17:30:07.686Z,16.40
2018-09-13T17:32:36.096Z,9.63
2018-09-13T17:35:04.620Z,9.43
2018-09-13T17:37:33.066Z,13.03
2018-09-13T17:40:01.541Z,12.50
2018-09-13T17:42:29.925Z,13.03
2018-09-13T17:44:58.420Z,10.33
2018-09-13T17:47:26.872Z,16.80
2018-09-13T17:49:55.290Z,15.00
2018-09-13T17:52:23.700Z,10.60
2018-09-13T17:54:52.150Z,11.90
2018-09-13T17:57:20.613Z,9.87
2018-09-13T17:59:49.087Z,12.27
2018-09-13T18:02:17.557Z,11.43
2018-09-13T18:04:47.398Z,10.53
2018-09-13T18:07:15.768Z,10.70
2018-09-13T18:09:44.188Z,18.50
2018-09-13T18:12:12.629Z,13.07
2018-09-13T18:14:41.061Z,13.27
2018-09-13T18:17:09.561Z,12.70
2018-09-13T18:19:38.028Z,12.40
2018-09-13T18:22:06.527Z,13.70
2018-09-13T18:24:34.876Z,10.87
2018-09-13T18:27:03.350Z,8.90
2018-09-13T18:29:31.761Z,10.90
2018-09-13T18:32:00.198Z,9.77
2018-09-13T18:34:28.616Z,11.00
2018-09-13T18:36:57.038Z,10.43
2018-09-13T18:39:25.466Z,11.47
2018-09-13T18:41:53.836Z,13.73
2018-09-13T18:44:22.284Z,12.10
2018-09-13T18:46:50.694Z,14.30
2018-09-13T18:49:19.111Z,15.03
2018-09-13T18:51:47.502Z,13.80
2018-09-13T18:54:15.979Z,12.53
2018-09-13T18:56:44.337Z,14.80
2018-09-13T18:59:12.805Z,10.00
2018-09-13T19:01:41.863Z,11.10
2018-09-13T19:04:10.324Z,15.43
2018-09-13T19:06:38.745Z,10.83
2018-09-13T19:09:09.401Z,10.67
2018-09-13T19:11:37.828Z,11.90
2018-09-13T19:14:06.401Z,16.23
2018-09-13T19:16:34.984Z,11.33
2018-09-13T19:19:03.412Z,13.93
2018-09-13T19:21:31.853Z,12.57
2018-09-13T19:24:00.281Z,10.27
2018-09-13T19:26:28.728Z,10.60
2018-09-13T19:28:57.106Z,10.73
2018-09-13T19:31:25.527Z,12.80
2018-09-13T19:33:54.030Z,10.37
2018-09-13T19:36:22.469Z,12.30
2018-09-13T19:38:50.943Z,12.37
2018-09-13T19:41:19.509Z,10.33
2018-09-13T19:43:48.055Z,10.87
2018-09-13T19:46:16.479Z,10.60
2018-09-13T19:48:44.997Z,13.73
2018-09-13T19:51:13.627Z,12.07
2018-09-13T19:53:42.044Z,10.50
2018-09-13T19:56:10.447Z,10.87
2018-09-13T19:58:38.876Z,13.90
2018-09-13T20:01:07.337Z,11.57
2018-09-13T20:03:35.853Z,15.30
2018-09-13T20:06:04.353Z,13.37
2018-09-13T20:08:32.777Z,14.87
2018-09-13T20:11:01.203Z,10.97
2018-09-13T20:13:29.631Z,15.30
2018-09-13T20:15:58.105Z,10.77
2018-09-13T20:18:26.583Z,10.83
2018-09-13T20:20:55.046Z,11.83
2018-09-13T20:23:23.449Z,10.83
2018-09-13T20:25:51.913Z,15.10
2018-09-13T20:28:20.340Z,19.03
2018-09-13T20:30:48.874Z,14.60
2018-09-13T20:33:17.276Z,12.03
2018-09-13T20:35:45.709Z,14.80
2018-09-13T20:38:14.132Z,14.60
2018-09-13T20:40:42.556Z,16.00
2018-09-13T20:43:10.944Z,13.90
2018-09-13T20:45:39.428Z,11.70
2018-09-13T20:48:07.917Z,18.53
2018-09-13T20:50:36.398Z,22.97
2018-09-13T20:53:04.813Z,18.23
2018-09-13T20:55:33.209Z,13.77
2018-09-13T20:58:02.458Z,15.40
2018-09-13T21:00:30.868Z,13.97
2018-09-13T21:02:59.289Z,12.27
2018-09-13T21:05:27.737Z,13.63
2018-09-13T21:07:56.415Z,10.93
2018-09-13T21:10:24.834Z,14.63
2018-09-13T21:12:53.282Z,13.57
2018-09-13T21:15:21.647Z,13.13
2018-09-13T21:17:50.114Z,11.83
2018-09-13T21:20:18.554Z,11.00
2018-09-13T21:22:46.979Z,12.63
2018-09-13T21:25:15.405Z,14.17
2018-09-13T21:27:43.829Z,13.47
2018-09-13T21:30:12.260Z,12.83
2018-09-13T21:32:40.711Z,15.80
2018-09-13T21:35:09.120Z,12.00
2018-09-13T21:37:37.528Z,13.97
2018-09-13T21:40:06.067Z,14.10
2018-09-13T21:42:34.519Z,13.03
2018-09-13T21:45:03.053Z,16.80
2018-09-13T21:47:31.593Z,18.20
2018-09-13T21:50:00.036Z,12.90
2018-09-13T21:52:29.397Z,15.20
2018-09-13T21:54:57.773Z,15.03
2018-09-13T21:57:26.237Z,12.40
2018-09-13T21:59:55.204Z,13.90
2018-09-13T22:02:23.645Z,12.33
2018-09-13T22:04:52.238Z,13.57
2018-09-13T22:07:20.673Z,10.53
2018-09-13T22:09:49.149Z,21.33
2018-09-13T22:12:17.606Z,16.10
2018-09-13T22:14:46.037Z,15.10
2018-09-13T22:17:15.829Z,22.97
2018-09-13T22:19:49.735Z,16.73
2018-09-13T22:22:18.186Z,16.37
2018-09-13T22:24:46.668Z,16.17
2018-09-13T22:27:15.081Z,14.50
2018-09-13T22:29:43.556Z,21.27
2018-09-13T22:32:11.997Z,14.77
2018-09-13T22:34:56.735Z,18.43
2018-09-13T22:37:25.199Z,21.10
2018-09-13T22:39:53.659Z,19.67
2018-09-13T22:42:22.093Z,14.50
2018-09-13T22:44:50.625Z,22.17
2018-09-13T22:47:19.009Z,17.00
2018-09-13T22:49:47.429Z,20.43
2018-09-13T22:52:15.858Z,16.90
2018-09-13T22:54:44.389Z,18.53
2018-09-13T22:57:12.851Z,18.80
2018-09-13T22:59:41.305Z,28.13
2018-09-13T23:02:09.792Z,16.30
2018-09-13T23:04:38.193Z,17.20
2018-09-13T23:07:06.612Z,16.30
2018-09-13T23:09:35.597Z,16.87
2018-09-13T23:12:04.109Z,15.07
2018-09-13T23:14:32.569Z,16.67
2018-09-13T23:17:01.009Z,17.70
2018-09-13T23:19:29.417Z,14.33
2018-09-13T23:21:57.864Z,20.43
2018-09-13T23:24:26.242Z,17.37
2018-09-13T23:26:54.685Z,16.37
2018-09-13T23:29:23.139Z,14.80
2018-09-13T23:31:51.626Z,18.70
2018-09-13T23:34:20.068Z,22.97
2018-09-13T23:36:48.444Z,16.50
2018-09-13T23:39:16.945Z,21.50
2018-09-13T23:41:45.331Z,17.40
2018-09-13T23:44:13.830Z,15.87
2018-09-13T23:46:42.272Z,15.50
2018-09-13T23:49:10.704Z,20.83
2018-09-13T23:51:39.129Z,17.23
2018-09-13T23:54:07.597Z,21.03
2018-09-13T23:56:35.970Z,16.23
2018-09-13T23:59:04.525Z,14.27
